Shinglehouse, Pennsylvania
Current Conditions -  °F | °C
As of 1:56 AM on Thursday 27 Nov 2014 (Local Time) from KELZ Reporting Station
Light Snow Light Snow  
Wind Chill: 19°   Ceiling: 800
Heat Index: 26°   Visibility: 9mi
Dew Point: 23°   Wind: 6mph
Humidity: 88%   Direction: 340°NNW
Pressure: 29.94"   Gusts: NA
Location:  41.96°N, 78.19°W
Report Text: KELZ 270656Z AUTO 34005KT 9SM -SN OVC008 M03/M05 A2994 RMK AO2 SNB45 CIG 005V011 SLP165 P0000 T10331050
Loading
Personal Weather Stations






























Interactive Weather Map New forecast layout! Learn more

10-Day Weather Forecast

Advertisements
Track Severe Weather on mobile